Time;durP1;ratioP1;P1;durP2;ratioP2;P2;SDS_P1;SDS_P2;PMS_P1;PMS_P2;Temp;Humidity;BMP_temperature;BMP_pressure;BME280_temperature;BME280_humidity;BME280_pressure;Samples;Min_cycle;Max_cycle;Signal;HPM_P1;HPM_P2
2023/08/16 00:01:24;;;;;;;0.80;0.80;;;;;;;18.50;80.32;101803.38;5056301;28;20373;-93
2023/08/16 00:03:50;;;;;;;1.20;1.10;;;;;;;18.50;80.37;101802.50;5056609;28;20116;-92
2023/08/16 00:06:29;;;;;;;1.17;1.10;;;;;;;18.46;80.66;101804.38;5056010;28;20094;-92
2023/08/16 00:08:58;;;;;;;1.45;1.20;;;;;;;18.44;80.73;101802.72;5056099;28;20062;-93
2023/08/16 00:11:25;;;;;;;1.38;1.27;;;;;;;18.48;80.86;101796.41;5055733;28;20532;-92
2023/08/16 00:13:50;;;;;;;;;;;;;;;18.56;81.05;101817.19;5055292;28;20025;-93
2023/08/16 00:16:32;;;;;;;1.63;1.53;;;;;;;18.52;81.14;101816.44;5036260;28;20365;-92
2023/08/16 00:18:57;;;;;;;1.30;1.20;;;;;;;18.44;81.06;101805.34;5036317;28;20104;-92
2023/08/16 00:21:24;;;;;;;1.33;1.23;;;;;;;18.45;81.08;101812.31;5036220;28;20110;-92
2023/08/16 00:24:05;;;;;;;1.35;1.33;;;;;;;18.42;81.28;101808.00;5035850;28;20025;-93
2023/08/16 00:26:31;;;;;;;1.20;1.20;;;;;;;18.50;81.49;101819.13;5036236;28;20034;-93
2023/08/16 00:28:56;;;;;;;1.20;1.20;;;;;;;18.52;81.69;101819.06;5044103;28;20013;-92
2023/08/16 00:31:22;;;;;;;1.60;1.50;;;;;;;18.52;81.77;101826.97;5055939;28;20024;-93
2023/08/16 00:33:48;;;;;;;1.48;1.40;;;;;;;18.48;81.71;101820.06;5054522;28;20041;-92
2023/08/16 00:36:13;;;;;;;1.30;1.20;;;;;;;18.51;81.78;101825.25;5055820;28;20070;-92
2023/08/16 00:38:42;;;;;;;1.50;1.40;;;;;;;18.49;82.00;101825.31;5056241;28;20458;-93
2023/08/16 00:41:09;;;;;;;1.55;1.38;;;;;;;18.42;82.09;101812.41;5055507;28;20021;-93
2023/08/16 00:43:34;;;;;;;1.35;1.30;;;;;;;18.39;82.21;101809.88;5055676;28;20512;-93
2023/08/16 00:46:00;;;;;;;1.60;1.50;;;;;;;18.39;82.12;101813.38;5055473;28;20031;-93
2023/08/16 00:48:43;;;;;;;1.40;1.30;;;;;;;18.40;82.40;101822.09;5055684;28;20060;-93
2023/08/16 00:51:09;;;;;;;1.50;1.40;;;;;;;18.41;82.37;101835.19;5054823;28;20036;-93
2023/08/16 00:53:37;;;;;;;1.30;1.20;;;;;;;18.37;82.70;101838.84;5055714;28;20024;-92
2023/08/16 00:56:03;;;;;;;1.30;1.30;;;;;;;18.32;82.72;101831.09;5055292;28;20044;-92
2023/08/16 00:58:48;;;;;;;1.40;1.30;;;;;;;18.32;82.69;101840.75;5055051;28;20085;-92
2023/08/16 01:01:14;;;;;;;2.00;1.55;;;;;;;18.19;83.06;101827.16;5054681;28;20025;-93
2023/08/16 01:03:40;;;;;;;1.73;1.40;;;;;;;18.24;83.18;101842.75;5078930;22;20034;-92
2023/08/16 01:06:05;;;;;;;1.40;1.30;;;;;;;18.19;83.26;101850.78;5055241;28;20037;-92
2023/08/16 01:08:32;;;;;;;1.43;1.33;;;;;;;18.15;83.49;101841.28;5054759;28;20108;-92
2023/08/16 01:11:03;;;;;;;1.50;1.40;;;;;;;18.11;83.40;101840.53;5055290;28;20017;-93
2023/08/16 01:13:37;;;;;;;1.80;1.27;;;;;;;18.08;83.60;101839.75;5054935;28;20021;-93
2023/08/16 01:16:08;;;;;;;1.50;1.40;;;;;;;18.13;83.94;101850.97;5055181;28;20029;-92
2023/08/16 01:18:36;;;;;;;1.55;1.45;;;;;;;18.07;83.86;101846.75;5055646;28;20032;-93
2023/08/16 01:21:01;;;;;;;1.23;1.20;;;;;;;18.08;83.86;101853.75;5055030;28;20107;-92
2023/08/16 01:23:53;;;;;;;1.43;1.33;;;;;;;18.07;84.10;101854.63;5055527;28;20060;-94
2023/08/16 01:26:49;;;;;;;1.38;1.27;;;;;;;18.03;84.30;101858.28;5043187;28;20040;-92
2023/08/16 01:29:16;;;;;;;1.10;1.10;;;;;;;18.02;84.30;101856.56;5033538;28;20045;-93
2023/08/16 01:32:04;;;;;;;1.38;1.30;;;;;;;18.03;84.58;101867.00;5054749;28;20101;-92
2023/08/16 01:34:29;;;;;;;1.30;1.20;;;;;;;17.94;84.63;101858.53;5055087;28;20021;-93
2023/08/16 01:36:55;;;;;;;1.33;1.33;;;;;;;18.00;84.55;101872.38;5054630;28;20419;-93
2023/08/16 01:39:33;;;;;;;1.60;1.50;;;;;;;17.91;84.90;101856.84;5054065;28;20075;-93
2023/08/16 01:42:02;;;;;;;1.50;1.40;;;;;;;17.86;84.92;101848.25;5054967;28;20044;-92
2023/08/16 01:44:28;;;;;;;1.73;1.63;;;;;;;17.96;87.32;101865.47;5054726;28;20021;-92
2023/08/16 01:46:53;;;;;;;1.90;1.70;;;;;;;17.80;88.39;101853.69;5054442;28;20028;-93
2023/08/16 01:49:40;;;;;;;2.60;1.60;;;;;;;17.84;87.25;101871.06;5054742;28;20097;-93
2023/08/16 01:52:06;;;;;;;1.50;1.40;;;;;;;17.75;87.69;101865.19;5054162;28;20482;-93
2023/08/16 01:54:47;;;;;;;2.00;1.90;;;;;;;17.64;88.06;101854.16;5054540;28;20031;-93
2023/08/16 01:57:12;;;;;;;1.85;1.58;;;;;;;17.55;87.04;101838.66;5054428;28;20025;-93
2023/08/16 01:59:37;;;;;;;1.47;1.37;;;;;;;17.55;86.42;101847.38;5054324;28;20485;-92
2023/08/16 02:02:03;;;;;;;2.03;1.80;;;;;;;17.68;86.16;101868.03;5053686;28;20523;-92
2023/08/16 02:04:53;;;;;;;1.50;1.40;;;;;;;17.70;86.27;101866.22;5052742;28;20048;-93
2023/08/16 02:07:19;;;;;;;1.50;1.40;;;;;;;17.65;86.26;101861.13;5054032;28;20021;-92
2023/08/16 02:09:44;;;;;;;1.60;1.50;;;;;;;17.61;86.09;101864.72;5054499;28;20454;-91
2023/08/16 02:12:25;;;;;;;1.27;1.27;;;;;;;17.59;86.04;101866.53;5053734;28;20033;-92
2023/08/16 02:14:50;;;;;;;1.58;1.48;;;;;;;17.69;86.26;101875.84;5053874;28;20027;-93
2023/08/16 02:17:15;;;;;;;2.83;2.10;;;;;;;17.58;88.51;101854.31;5053998;28;20111;-92
2023/08/16 02:19:41;;;;;;;2.17;1.97;;;;;;;17.51;87.64;101852.78;5054217;28;20103;-92
2023/08/16 02:22:06;;;;;;;2.03;1.93;;;;;;;17.52;86.61;101855.34;5053979;28;20036;-92
2023/08/16 02:24:45;;;;;;;1.73;1.63;;;;;;;17.51;86.47;101858.88;5053921;28;20066;-94
2023/08/16 02:27:11;;;;;;;1.60;1.50;;;;;;;17.49;86.43;101855.44;5053691;28;20029;-93
2023/08/16 02:29:36;;;;;;;1.67;1.58;;;;;;;17.60;86.59;101871.75;5054386;28;20025;-93
2023/08/16 02:32:02;;;;;;;1.80;1.70;;;;;;;17.54;86.61;101865.81;5070493;28;20021;-93
2023/08/16 02:34:44;;;;;;;2.20;1.93;;;;;;;17.59;86.33;101871.78;5053868;28;20035;-93
2023/08/16 02:37:09;;;;;;;2.17;1.70;;;;;;;17.60;86.31;101874.38;5053831;28;20029;-93
2023/08/16 02:39:34;;;;;;;1.90;1.80;;;;;;;17.63;86.55;101881.28;5053560;28;20653;-93
2023/08/16 02:41:59;;;;;;;1.97;1.87;;;;;;;17.64;86.31;101882.16;5053475;28;20025;-93
2023/08/16 02:44:25;;;;;;;1.57;1.47;;;;;;;17.65;86.41;101876.00;5053855;28;20426;-93
2023/08/16 02:47:12;;;;;;;1.60;1.50;;;;;;;17.62;86.58;101871.69;5053328;28;20074;-92
2023/08/16 02:49:37;;;;;;;1.13;1.13;;;;;;;17.47;86.91;101852.00;5053924;28;20029;-93
2023/08/16 02:52:24;;;;;;;2.47;2.27;;;;;;;17.51;89.58;101861.50;5053721;28;20032;-93
2023/08/16 02:54:48;;;;;;;1.90;1.80;;;;;;;17.41;87.58;101852.16;5052937;28;20593;-93
2023/08/16 02:57:16;;;;;;;3.20;2.60;;;;;;;17.36;90.69;101846.19;5053575;28;20052;-93
2023/08/16 03:02:27;;;;;;;3.22;2.63;;;;;;;17.16;88.81;101851.97;5053338;28;20194;-92
2023/08/16 03:04:53;;;;;;;;;;;;;;;17.24;88.29;101864.00;5053457;28;20392;-93
2023/08/16 03:07:18;;;;;;;3.40;2.40;;;;;;;17.25;88.19;101862.22;5053344;28;19999;-93
2023/08/16 03:10:02;;;;;;;2.07;1.97;;;;;;;17.19;88.07;101850.13;5053487;28;20531;-93
2023/08/16 03:12:28;;;;;;;2.10;1.90;;;;;;;17.30;88.04;101870.84;5053410;28;20033;-93
2023/08/16 03:14:53;;;;;;;2.00;1.80;;;;;;;17.26;87.94;101853.44;5053683;28;20032;-93
2023/08/16 03:17:19;;;;;;;1.97;1.77;;;;;;;17.31;87.93;101869.94;5060364;22;20049;-93
2023/08/16 03:19:44;;;;;;;2.00;1.80;;;;;;;17.31;87.80;101872.56;5053042;28;20041;-93
2023/08/16 03:22:09;;;;;;;2.00;1.80;;;;;;;17.30;87.70;101876.09;5052902;28;20507;-93
2023/08/16 03:24:51;;;;;;;2.20;1.90;;;;;;;17.35;87.91;101874.19;5054031;28;20060;-92
2023/08/16 03:27:16;;;;;;;1.90;1.80;;;;;;;17.33;87.75;101870.75;5071686;22;20041;-93
2023/08/16 03:29:42;;;;;;;1.73;1.63;;;;;;;17.40;87.62;101885.44;5069789;28;20393;-93
2023/08/16 03:32:07;;;;;;;1.60;1.50;;;;;;;17.42;88.19;101881.00;5064330;28;20112;-93
2023/08/16 03:34:47;;;;;;;3.17;2.20;;;;;;;17.25;89.11;101852.59;5056716;28;20052;-94
2023/08/16 03:37:12;;;;;;;2.35;2.15;;;;;;;17.24;88.15;101856.13;5056866;28;20025;-91
2023/08/16 03:39:37;;;;;;;2.10;1.90;;;;;;;17.23;88.09;101853.53;5057006;28;20031;-92
2023/08/16 03:42:03;;;;;;;1.80;1.70;;;;;;;17.25;87.77;101867.47;5056597;28;20021;-91
2023/08/16 03:44:56;;;;;;;1.70;1.60;;;;;;;17.32;87.58;101882.16;5056534;28;20078;-91
2023/08/16 03:47:21;;;;;;;1.45;1.35;;;;;;;17.29;87.46;101874.34;5056789;28;20022;-92
2023/08/16 03:49:47;;;;;;;2.00;1.50;;;;;;;17.30;87.80;101886.56;5056809;28;20036;-92
2023/08/16 03:52:46;;;;;;;1.97;1.80;;;;;;;17.26;87.83;101891.06;5004716;28;20037;-92
2023/08/16 03:55:12;;;;;;;1.90;1.80;;;;;;;17.26;87.39;101885.81;5056701;28;20029;-92
2023/08/16 03:57:37;;;;;;;1.70;1.60;;;;;;;17.21;87.61;101876.34;5056081;28;20024;-92
2023/08/16 04:00:16;;;;;;;1.70;1.60;;;;;;;17.28;87.39;101883.97;5056195;28;20025;-92
2023/08/16 04:02:41;;;;;;;1.70;1.60;;;;;;;17.26;87.15;101883.19;5056516;28;20377;-92
2023/08/16 04:05:12;;;;;;;1.53;1.43;;;;;;;17.26;87.37;101880.56;5055343;28;20040;-92
2023/08/16 04:07:39;;;;;;;1.60;1.50;;;;;;;17.27;87.68;101894.53;5056036;28;20043;-92
2023/08/16 04:10:05;;;;;;;1.60;1.50;;;;;;;17.25;87.78;101891.06;5056344;28;20175;-92
2023/08/16 04:12:47;;;;;;;2.42;1.80;;;;;;;17.12;87.95;101878.28;5056234;28;20025;-92
2023/08/16 04:15:13;;;;;;;1.92;1.73;;;;;;;17.08;87.83;101874.03;5055964;28;20051;-92
2023/08/16 04:17:38;;;;;;;1.50;1.40;;;;;;;17.19;87.71;101892.09;5056225;28;20458;-92
2023/08/16 04:20:07;;;;;;;1.73;1.63;;;;;;;17.17;87.74;101890.44;5056011;28;20024;-92
2023/08/16 04:22:45;;;;;;;1.65;1.55;;;;;;;17.09;87.50;101888.00;5055899;28;20031;-91
2023/08/16 04:25:10;;;;;;;1.65;1.55;;;;;;;17.04;87.65;101882.88;5055737;28;20032;-92
2023/08/16 04:27:36;;;;;;;1.77;1.40;;;;;;;17.06;87.74;101890.69;5055745;28;20049;-92
2023/08/16 04:30:01;;;;;;;1.60;1.50;;;;;;;17.08;87.69;101899.38;5055875;28;20390;-92
2023/08/16 04:32:26;;;;;;;1.73;1.63;;;;;;;17.06;88.04;101907.31;5055714;28;20025;-92
2023/08/16 04:35:43;;;;;;;1.47;1.37;;;;;;;17.06;88.70;101906.44;5055832;28;20161;-92
2023/08/16 04:38:09;;;;;;;1.92;1.73;;;;;;;17.00;87.91;101898.72;5055508;28;20036;-92
2023/08/16 04:40:34;;;;;;;;;;;;;;;17.03;87.96;101909.16;5055729;28;20461;-92
2023/08/16 04:43:00;;;;;;;2.10;1.90;;;;;;;17.02;87.89;101908.28;5055548;28;19922;-92
2023/08/16 04:45:25;;;;;;;2.10;1.90;;;;;;;17.01;88.58;101905.69;5055056;28;20028;-93
2023/08/16 04:48:01;;;;;;;2.03;1.93;;;;;;;16.95;89.20;101910.19;5055645;28;20053;-93
2023/08/16 04:50:26;;;;;;;3.55;2.53;;;;;;;16.78;89.17;101886.13;5055356;28;20112;-92
2023/08/16 04:52:52;;;;;;;2.60;2.30;;;;;;;16.86;88.74;101902.53;5055734;28;20044;-93
2023/08/16 04:55:17;;;;;;;1.80;1.70;;;;;;;16.80;88.33;101884.34;5054979;28;20052;-93
2023/08/16 04:58:02;;;;;;;1.80;1.70;;;;;;;16.91;88.61;101899.78;5055392;28;20017;-94
2023/08/16 05:00:28;;;;;;;2.90;2.23;;;;;;;16.86;89.90;101896.44;5055560;28;20058;-93
2023/08/16 05:03:06;;;;;;;3.10;2.43;;;;;;;16.73;89.47;101888.88;5055362;28;20111;-94
2023/08/16 05:05:32;;;;;;;4.63;3.20;;;;;;;16.68;90.11;101888.09;5055312;28;20044;-93
2023/08/16 05:07:57;;;;;;;2.53;2.30;;;;;;;16.78;89.21;101914.97;5055424;28;20017;-92
2023/08/16 05:10:37;;;;;;;2.97;2.20;;;;;;;16.66;88.77;101896.00;5054498;28;20029;-92
2023/08/16 05:13:02;;;;;;;2.30;2.10;;;;;;;16.66;89.06;101898.63;5054603;28;20469;-92
2023/08/16 05:15:28;;;;;;;2.00;1.73;;;;;;;16.78;88.94;101912.34;5054707;28;20048;-88
2023/08/16 05:17:53;;;;;;;1.90;1.80;;;;;;;16.72;88.88;101902.88;5055328;28;20029;-93
2023/08/16 05:20:18;;;;;;;1.67;1.57;;;;;;;16.83;88.71;101921.81;5054146;28;20527;-93
2023/08/16 05:22:44;;;;;;;1.77;1.67;;;;;;;16.80;88.57;101918.41;5054916;28;20033;-95
2023/08/16 05:25:09;;;;;;;1.60;1.50;;;;;;;16.82;88.79;101922.72;5054603;28;20087;-95
2023/08/16 05:27:34;;;;;;;1.70;1.60;;;;;;;16.81;88.93;101923.59;5054413;28;20103;-95
2023/08/16 05:30:00;;;;;;;1.37;1.37;;;;;;;16.82;88.29;101933.19;5054672;28;20116;-94
2023/08/16 05:32:25;;;;;;;1.50;1.40;;;;;;;16.82;88.74;101933.19;5054713;28;20077;-94
2023/08/16 05:34:54;;;;;;;1.47;1.37;;;;;;;16.82;88.97;101938.44;5054276;28;20025;-94
2023/08/16 05:37:19;;;;;;;2.08;1.70;;;;;;;16.82;89.54;101935.81;5054502;28;20033;-94
2023/08/16 05:39:44;;;;;;;2.63;1.90;;;;;;;16.78;88.99;101931.53;5054994;28;20016;-91
2023/08/16 05:42:10;;;;;;;4.90;3.10;;;;;;;16.76;90.53;101941.22;5057802;28;20473;-96
2023/08/16 05:44:41;;;;;;;4.83;2.60;;;;;;;16.65;89.18;101922.28;5057459;28;20048;-96
2023/08/16 05:47:06;;;;;;;2.30;2.10;;;;;;;16.74;88.88;101932.53;5058552;28;20096;-96
2023/08/16 05:49:32;;;;;;;2.20;1.93;;;;;;;16.75;88.54;101921.16;5061195;28;20402;-96
2023/08/16 05:51:57;;;;;;;2.10;1.93;;;;;;;16.78;88.32;101921.06;5059789;28;20024;-96
2023/08/16 05:54:23;;;;;;;2.00;1.83;;;;;;;16.79;89.28;101928.03;5059526;28;20032;-96
2023/08/16 05:57:00;;;;;;;1.80;1.70;;;;;;;16.77;89.47;101919.34;5059370;28;20021;-96
2023/08/16 05:59:25;;;;;;;1.42;1.40;;;;;;;16.83;89.07;101929.69;5058878;28;20031;-94
2023/08/16 06:01:51;;;;;;;1.93;1.80;;;;;;;16.96;88.83;101956.47;5060588;28;20025;-96
2023/08/16 06:04:16;;;;;;;1.70;1.60;;;;;;;16.91;88.79;101945.22;5058670;28;20049;-96
2023/08/16 06:06:42;;;;;;;1.43;1.33;;;;;;;16.97;88.55;101955.59;5057228;28;20032;-96
2023/08/16 06:09:07;;;;;;;1.20;1.20;;;;;;;17.08;88.55;101967.56;5058619;28;20032;-95
2023/08/16 06:11:33;;;;;;;1.30;1.20;;;;;;;17.00;88.64;101941.53;5061646;28;20037;-95
2023/08/16 06:14:14;;;;;;;2.00;1.70;;;;;;;17.05;88.87;101950.16;5058343;28;20041;-96
2023/08/16 06:16:39;;;;;;;1.60;1.50;;;;;;;17.06;88.67;101951.00;5058975;28;20040;-95
2023/08/16 06:19:05;;;;;;;1.83;1.57;;;;;;;17.10;88.14;101943.06;5059388;28;20025;-95
2023/08/16 06:21:38;;;;;;;1.60;1.50;;;;;;;17.13;88.45;101948.19;5060223;28;20108;-93
2023/08/16 06:24:12;;;;;;;2.00;1.80;;;;;;;17.14;88.78;101942.06;5056175;28;20021;-95
2023/08/16 06:26:38;;;;;;;1.80;1.70;;;;;;;17.23;89.68;101946.22;5059289;28;20091;-96
2023/08/16 06:29:18;;;;;;;2.53;2.07;;;;;;;17.26;89.26;101937.41;5057910;28;20029;-94
2023/08/16 06:32:03;;;;;;;3.22;2.35;;;;;;;17.32;89.25;101946.88;5038066;28;20017;-93
2023/08/16 06:34:38;;;;;;;2.28;2.08;;;;;;;17.37;89.42;101948.47;5033482;28;20033;-88
2023/08/16 06:37:06;;;;;;;2.10;1.90;;;;;;;17.34;89.00;101934.56;5032877;28;20017;-88
2023/08/16 06:39:43;;;;;;;2.20;2.00;;;;;;;17.49;88.14;101952.56;5031908;28;20120;-92
2023/08/16 06:42:11;;;;;;;2.78;1.90;;;;;;;17.48;88.33;101944.69;5034621;28;20025;-94
2023/08/16 06:44:37;;;;;;;3.95;2.40;;;;;;;17.57;88.37;101958.44;5037137;28;20458;-96
2023/08/16 06:47:02;;;;;;;2.70;2.33;;;;;;;17.65;87.91;101958.25;5035641;28;20064;-95
2023/08/16 06:49:51;;;;;;;3.70;2.40;;;;;;;17.74;87.84;101957.09;5033378;28;20076;-96
2023/08/16 06:52:17;;;;;;;4.65;2.75;;;;;;;17.77;87.75;101945.69;5033783;28;20067;-95
2023/08/16 06:54:42;;;;;;;2.47;2.27;;;;;;;17.93;87.37;101961.88;5034950;28;20025;-93
2023/08/16 06:57:08;;;;;;;1.97;1.87;;;;;;;18.08;87.39;101955.34;5034052;28;20017;-95
2023/08/16 06:59:35;;;;;;;3.45;2.75;;;;;;;18.81;86.06;101953.97;5105744;22;20513;-94
2023/08/16 07:02:00;;;;;;;4.28;2.60;;;;;;;20.65;82.45;101955.34;5057884;28;20044;-95
2023/08/16 07:04:26;;;;;;;4.47;2.70;;;;;;;22.40;72.75;101964.56;5059877;28;20024;-95
2023/08/16 07:06:51;;;;;;;3.83;2.60;;;;;;;23.87;66.28;101973.94;5059182;28;20021;-96
2023/08/16 07:09:17;;;;;;;2.50;2.30;;;;;;;24.89;66.75;101982.56;5064731;28;20025;-94
2023/08/16 07:11:42;;;;;;;2.60;2.20;;;;;;;25.70;64.18;101976.88;5071937;28;20116;-96
2023/08/16 07:14:08;;;;;;;2.83;2.10;;;;;;;26.31;62.70;101981.09;5061666;28;20025;-95
2023/08/16 07:16:35;;;;;;;5.38;2.75;;;;;;;26.67;54.37;101988.50;5060443;28;20451;-95
2023/08/16 07:19:00;;;;;;;4.28;2.40;;;;;;;26.29;59.58;101989.19;5060794;28;20052;-94
2023/08/16 07:21:26;;;;;;;4.00;2.47;;;;;;;25.34;59.91;101983.44;5061167;28;20025;-94
2023/08/16 07:23:51;;;;;;;3.70;2.40;;;;;;;24.45;57.88;101992.94;5059498;28;20060;-95
2023/08/16 07:26:17;;;;;;;3.17;2.60;;;;;;;23.67;62.47;101976.81;5060290;28;20075;-95
2023/08/16 07:28:42;;;;;;;3.13;2.30;;;;;;;22.95;63.44;101974.25;5062409;28;20424;-94
2023/08/16 07:31:08;;;;;;;3.00;2.27;;;;;;;22.35;66.19;101978.84;5061844;28;20024;-96
2023/08/16 07:33:35;;;;;;;2.75;2.40;;;;;;;22.02;67.30;101974.22;5060638;28;20480;-95
2023/08/16 07:36:01;;;;;;;4.43;2.40;;;;;;;21.68;65.93;101981.00;5066865;22;20081;-94
2023/08/16 07:38:35;;;;;;;5.13;3.33;;;;;;;20.76;67.96;101952.28;5048825;28;20041;-94
2023/08/16 07:41:00;;;;;;;4.63;2.70;;;;;;;20.58;69.62;101966.19;5058247;28;20389;-92
2023/08/16 07:43:28;;;;;;;5.90;3.00;;;;;;;20.30;70.63;101983.06;5057227;28;20029;-95
2023/08/16 07:46:00;;;;;;;3.88;2.22;;;;;;;20.17;71.52;101970.34;5061173;28;20107;-95
2023/08/16 07:48:25;;;;;;;3.92;2.30;;;;;;;20.33;71.70;101989.09;5061303;28;20082;-94
2023/08/16 07:50:51;;;;;;;3.90;2.17;;;;;;;20.34;71.41;101972.34;5063912;28;20025;-93
2023/08/16 07:53:17;;;;;;;3.20;2.50;;;;;;;20.40;69.72;101981.78;5058311;28;20029;-94
2023/08/16 07:55:42;;;;;;;3.38;2.35;;;;;;;20.44;70.79;101993.06;5060278;28;20489;-96
2023/08/16 07:58:23;;;;;;;3.67;2.37;;;;;;;20.39;70.84;101993.25;5058454;28;20052;-95
2023/08/16 08:00:53;;;;;;;2.40;2.20;;;;;;;20.26;70.60;101981.50;5058131;28;20179;-93
2023/08/16 08:03:30;;;;;;;2.33;1.80;;;;;;;20.34;71.66;101982.03;5059684;28;20028;-94
2023/08/16 08:06:03;;;;;;;2.97;2.20;;;;;;;20.45;68.93;101989.53;5057587;28;20477;-95
2023/08/16 08:08:28;;;;;;;3.53;2.35;;;;;;;20.46;69.01;101994.75;5057169;28;20504;-93
2023/08/16 08:11:06;;;;;;;2.77;2.10;;;;;;;20.49;69.60;101976.16;5057023;28;20021;-95
2023/08/16 08:13:31;;;;;;;2.30;1.80;;;;;;;20.75;71.00;101987.50;5057304;28;20048;-94
2023/08/16 08:15:57;;;;;;;1.77;1.43;;;;;;;20.97;70.17;101982.22;5057293;28;20052;-95
2023/08/16 08:18:22;;;;;;;1.20;1.20;;;;;;;21.17;70.75;101988.44;5056402;28;20067;-94
2023/08/16 08:20:47;;;;;;;1.17;1.10;;;;;;;21.45;70.01;101996.06;5057972;28;20021;-94
2023/08/16 08:23:30;;;;;;;1.10;1.10;;;;;;;21.66;66.13;102006.63;5055982;28;20021;-92
2023/08/16 08:25:55;;;;;;;3.50;1.77;;;;;;;21.68;67.24;102006.56;5057009;28;20029;-95
2023/08/16 08:28:22;;;;;;;1.43;1.33;;;;;;;21.68;67.26;101996.00;5057332;28;20051;-95
2023/08/16 08:31:03;;;;;;;2.40;1.80;;;;;;;21.71;68.49;101987.94;5057396;28;20381;-94
2023/08/16 08:33:29;;;;;;;2.08;1.45;;;;;;;21.89;66.62;102003.00;5056666;28;20453;-93
2023/08/16 08:35:55;;;;;;;6.25;2.22;;;;;;;21.81;64.32;101998.97;5055948;28;20080;-94
2023/08/16 08:38:36;;;;;;;4.47;2.08;;;;;;;21.69;63.31;102000.34;5056010;28;20484;-94
2023/08/16 08:41:01;;;;;;;2.25;1.70;;;;;;;21.67;65.79;101992.50;5056425;28;20036;-95
2023/08/16 08:43:32;;;;;;;2.37;1.77;;;;;;;21.89;66.09;102007.41;5055907;28;20028;-95
2023/08/16 08:46:13;;;;;;;3.83;2.30;;;;;;;21.69;62.61;102011.78;5057446;28;20036;-92
2023/08/16 08:48:39;;;;;;;6.35;2.70;;;;;;;21.62;63.09;102010.31;5055942;28;20158;-92
2023/08/16 08:51:05;;;;;;;4.05;2.38;;;;;;;21.62;63.99;102009.47;5055905;28;20078;-92
2023/08/16 08:54:00;;;;;;;4.80;2.33;;;;;;;21.42;63.86;102004.09;5056345;28;20103;-91
2023/08/16 08:56:27;;;;;;;4.47;2.05;;;;;;;21.55;66.30;102009.72;5058628;28;20033;-95
2023/08/16 08:59:43;;;;;;;5.07;2.30;;;;;;;21.74;65.10;102023.00;5056274;28;20021;-96
2023/08/16 09:02:10;;;;;;;3.88;2.30;;;;;;;21.68;64.82;102014.47;5057564;28;20104;-95
2023/08/16 09:04:52;;;;;;;5.03;2.45;;;;;;;21.62;64.50;102001.56;5058117;28;20021;-94
2023/08/16 09:07:18;;;;;;;4.95;2.33;;;;;;;21.58;64.24;102008.72;5035864;28;20052;-93
2023/08/16 09:09:44;;;;;;;4.07;2.00;;;;;;;21.78;64.84;102022.88;5037166;28;20029;-95
2023/08/16 09:12:30;;;;;;;5.22;2.30;;;;;;;21.74;63.16;102025.63;5035739;28;20060;-94
2023/08/16 09:14:55;;;;;;;5.47;2.50;;;;;;;21.68;63.73;102020.63;5043141;28;20024;-94
2023/08/16 09:17:34;;;;;;;3.23;2.40;;;;;;;21.63;64.95;102001.47;5055241;28;20449;-94
2023/08/16 09:20:08;;;;;;;3.22;1.80;;;;;;;21.72;65.58;102010.78;5055941;28;20354;-95
2023/08/16 09:22:49;;;;;;;5.03;2.47;;;;;;;21.75;64.68;102003.59;5055785;28;20025;-95
2023/08/16 09:25:14;;;;;;;2.10;1.90;;;;;;;21.87;65.23;102015.41;5055433;28;20025;-94
2023/08/16 09:27:55;;;;;;;2.83;1.90;;;;;;;22.03;65.29;102014.69;5055506;28;20484;-93
2023/08/16 09:30:20;;;;;;;6.47;2.80;;;;;;;21.92;62.63;102020.50;5055625;28;20017;-94
2023/08/16 09:32:46;;;;;;;4.37;2.20;;;;;;;21.92;64.64;102015.19;5054937;28;20108;-94
2023/08/16 09:35:16;;;;;;;5.22;2.50;;;;;;;21.88;64.69;102032.09;5053816;28;20044;-95
2023/08/16 09:38:03;;;;;;;3.75;2.10;;;;;;;21.88;65.70;102008.31;5047081;28;20540;-92
2023/08/16 09:40:28;;;;;;;4.88;2.40;;;;;;;21.96;64.78;102027.34;5056548;28;20029;-92
2023/08/16 09:43:18;;;;;;;5.70;2.73;;;;;;;22.00;63.26;102009.56;5054580;28;20477;-93
2023/08/16 09:46:06;;;;;;;5.68;2.40;;;;;;;22.03;62.88;102026.16;5054100;28;20078;-93
2023/08/16 09:48:38;;;;;;;2.85;2.00;;;;;;;22.14;62.55;101995.72;5054491;28;20032;-93
2023/08/16 09:51:04;;;;;;;4.85;2.65;;;;;;;22.22;64.43;101998.84;5057550;28;20020;-92
2023/08/16 09:53:52;;;;;;;4.45;2.10;;;;;;;22.55;63.58;102021.19;5054558;28;20028;-93
2023/08/16 09:56:20;;;;;;;2.88;1.80;;;;;;;22.68;65.68;102002.00;5054940;28;20107;-94
2023/08/16 09:59:08;;;;;;;4.18;2.20;;;;;;;22.82;62.16;101998.69;5039776;28;20079;-94
2023/08/16 10:01:35;;;;;;;4.18;2.20;;;;;;;22.80;60.28;102023.53;5034802;28;20029;-91
2023/08/16 10:04:16;;;;;;;7.00;2.63;;;;;;;22.19;61.64;102009.56;5034762;28;20501;-92
2023/08/16 10:06:42;;;;;;;4.53;2.10;;;;;;;22.45;63.07;102019.00;5034864;28;20029;-90
2023/08/16 10:09:09;;;;;;;3.90;2.25;;;;;;;22.63;63.51;102011.09;5035721;28;20029;-96
2023/08/16 10:11:35;;;;;;;;;;;;;;;22.68;62.69;102019.69;5041170;28;20024;-96
2023/08/16 10:14:02;;;;;;;5.93;2.50;;;;;;;22.54;64.07;102017.69;5055261;28;19955;-96
2023/08/16 10:17:03;;;;;;;4.40;2.28;;;;;;;22.67;65.00;102005.59;5003287;28;20029;-95
2023/08/16 10:19:32;;;;;;;2.55;1.90;;;;;;;22.77;66.05;102000.72;5055844;28;20041;-96
2023/08/16 10:22:21;;;;;;;4.15;2.33;;;;;;;22.76;66.21;101995.47;5055250;28;20082;-96
2023/08/16 10:24:50;;;;;;;6.18;2.13;;;;;;;22.87;65.86;101997.63;5054704;28;20052;-96
2023/08/16 10:27:25;;;;;;;4.45;2.78;;;;;;;22.66;64.41;101990.63;5054614;28;20024;-93
2023/08/16 10:29:59;;;;;;;5.68;2.80;;;;;;;22.55;65.21;102008.81;5054111;28;20032;-92
2023/08/16 10:32:25;;;;;;;6.32;3.28;;;;;;;22.25;64.90;102013.72;5053904;28;20159;-93
2023/08/16 10:34:54;;;;;;;5.30;2.75;;;;;;;22.12;65.37;102001.09;5050298;28;20056;-94
2023/08/16 10:37:21;;;;;;;5.47;2.92;;;;;;;22.14;64.66;102003.66;5053850;28;20082;-94
2023/08/16 10:39:49;;;;;;;5.75;2.90;;;;;;;22.23;64.60;102018.25;5053474;28;20021;-94
2023/08/16 10:42:27;;;;;;;5.25;2.80;;;;;;;22.13;65.94;102000.13;5053702;28;20021;-93
2023/08/16 10:44:55;;;;;;;6.97;3.03;;;;;;;22.13;65.08;101994.00;5054565;28;20100;-96
2023/08/16 10:47:30;;;;;;;3.97;2.45;;;;;;;22.43;65.29;102010.28;5060062;28;20025;-96
2023/08/16 10:50:11;;;;;;;3.35;2.10;;;;;;;22.73;65.86;101993.00;5065875;28;20104;-96
2023/08/16 10:52:38;;;;;;;4.07;2.35;;;;;;;23.08;65.02;101993.06;5058584;28;20029;-96
2023/08/16 10:55:03;;;;;;;5.05;2.22;;;;;;;23.35;62.08;101982.00;5057229;28;20025;-96
2023/08/16 10:57:54;;;;;;;6.13;2.45;;;;;;;23.10;60.54;101994.69;5055555;28;20075;-95
2023/08/16 11:00:39;;;;;;;7.40;3.13;;;;;;;22.74;62.41;101986.78;5055653;28;20021;-96
2023/08/16 11:03:33;;;;;;;4.47;2.53;;;;;;;22.85;62.85;101991.53;5055985;28;20099;-96
2023/08/16 11:06:00;;;;;;;5.30;2.50;;;;;;;22.84;64.29;101995.97;5056396;28;20048;-96
2023/08/16 11:08:43;;;;;;;2.63;2.00;;;;;;;23.00;62.77;101985.50;5056606;28;20104;-96
2023/08/16 11:11:48;;;;;;;5.30;2.60;;;;;;;23.08;63.74;102004.50;5053277;28;20033;-96
2023/08/16 11:14:29;;;;;;;;;;;;;;;23.02;60.58;101998.63;5067171;28;20033;-96
2023/08/16 11:16:56;;;;;;;6.93;3.20;;;;;;;22.67;62.69;101991.50;5055855;28;19920;-92
2023/08/16 11:19:37;;;;;;;4.45;2.90;;;;;;;22.65;63.77;101988.91;5054089;28;20029;-93
2023/08/16 11:22:02;;;;;;;4.82;2.58;;;;;;;22.63;63.90;101988.13;5044629;28;20119;-92
2023/08/16 11:24:45;;;;;;;7.97;2.90;;;;;;;22.60;64.20;101988.31;5052683;28;20504;-95
2023/08/16 11:27:23;;;;;;;7.07;3.28;;;;;;;22.48;64.15;101978.31;5033487;28;20021;-94
2023/08/16 11:29:54;;;;;;;6.38;3.30;;;;;;;22.32;64.64;101994.84;5033674;28;20022;-94
2023/08/16 11:38:49;;;;;;;4.00;2.20;;;;;;;22.77;65.81;101981.31;5053519;28;20044;-95
2023/08/16 11:41:19;;;;;;;6.05;3.28;;;;;;;22.79;63.59;101984.75;5052354;28;20025;-93
2023/08/16 11:43:45;;;;;;;5.32;2.92;;;;;;;22.74;64.35;101987.63;5053110;28;20381;-94
2023/08/16 11:47:01;;;;;;;8.60;3.55;;;;;;;22.65;64.55;101985.44;5054731;28;20025;-93
2023/08/16 11:49:27;;;;;;;5.68;2.67;;;;;;;22.58;64.77;101971.66;5051947;28;20045;-94
2023/08/16 11:51:52;;;;;;;6.03;2.67;;;;;;;22.79;64.30;101976.81;5055978;28;20116;-94
2023/08/16 11:54:30;;;;;;;7.37;3.23;;;;;;;23.02;64.68;101964.22;5056291;28;20021;-95